Time;durP1;ratioP1;P1;durP2;ratioP2;P2;SDS_P1;SDS_P2;PMS_P1;PMS_P2;Temp;Humidity;BMP_temperature;BMP_pressure;BME280_temperature;BME280_humidity;BME280_pressure;Samples;Min_cycle;Max_cycle;Signal;HPM_P1;HPM_P2
2024/01/18 00:00:15;;;;;;;24.65;15.80;;;;;;;;;;5024409;28;21821;-79
2024/01/18 00:02:41;;;;;;;27.48;16.13;;;;;;;;;;5005905;28;20534;-79
2024/01/18 00:05:08;;;;;;;24.70;15.93;;;;;;;;;;5008605;28;20879;-79
2024/01/18 00:07:34;;;;;;;23.33;15.45;;;;;;;;;;5027837;28;20057;-79
2024/01/18 00:10:00;;;;;;;24.55;15.32;;;;;;;;;;5007767;28;20184;-79
2024/01/18 00:12:26;;;;;;;25.75;16.05;;;;;;;;;;5008665;28;20050;-79
2024/01/18 00:14:52;;;;;;;31.98;16.02;;;;;;;;;;5021666;28;20530;-79
2024/01/18 00:17:18;;;;;;;26.42;16.42;;;;;;;;;;5007048;28;20053;-79
2024/01/18 00:19:44;;;;;;;26.40;15.40;;;;;;;;;;5025187;28;20049;-79
2024/01/18 00:22:10;;;;;;;23.63;15.95;;;;;;;;;;5007358;28;20845;-79
2024/01/18 00:24:36;;;;;;;22.80;15.05;;;;;;;;;;4993323;28;20586;-79
2024/01/18 00:27:03;;;;;;;21.98;14.35;;;;;;;;;;5022986;28;20084;-79
2024/01/18 00:29:30;;;;;;;19.50;13.02;;;;;;;;;;4992633;28;20045;-79
2024/01/18 00:31:56;;;;;;;21.17;12.90;;;;;;;;;;5024054;28;20099;-79
2024/01/18 00:34:22;;;;;;;19.63;12.65;;;;;;;;;;4991883;28;20053;-79
2024/01/18 00:36:49;;;;;;;21.13;12.15;;;;;;;;;;5026844;28;20458;-79
2024/01/18 00:39:18;;;;;;;20.33;11.85;;;;;;;;;;4992631;28;20053;-79
2024/01/18 00:41:45;;;;;;;15.65;11.80;;;;;;;;;;5005431;28;20092;-78
2024/01/18 00:44:11;;;;;;;17.08;11.32;;;;;;;;;;5021520;28;20046;-79
2024/01/18 00:46:37;;;;;;;18.20;12.02;;;;;;;;;;5025365;28;20045;-79
2024/01/18 00:49:04;;;;;;;18.10;10.95;;;;;;;;;;5027628;28;20406;-79
2024/01/18 00:51:30;;;;;;;16.70;11.18;;;;;;;;;;5004699;28;21181;-79
2024/01/18 00:53:56;;;;;;;14.35;10.30;;;;;;;;;;5004850;28;20068;-79
2024/01/18 00:56:22;;;;;;;19.63;10.90;;;;;;;;;;5025150;28;20052;-79
2024/01/18 00:58:49;;;;;;;17.38;10.13;;;;;;;;;;4991890;28;20461;-79
2024/01/18 01:01:15;;;;;;;17.50;9.43;;;;;;;;;;5007005;28;20080;-79
2024/01/18 01:03:41;;;;;;;18.00;9.27;;;;;;;;;;5025366;28;20057;-79
2024/01/18 01:06:11;;;;;;;15.95;9.68;;;;;;;;;;5023767;28;20052;-79
2024/01/18 01:08:37;;;;;;;13.90;9.27;;;;;;;;;;5027593;28;20531;-79
2024/01/18 01:11:04;;;;;;;15.98;9.45;;;;;;;;;;5033487;28;20095;-79
2024/01/18 01:13:30;;;;;;;18.45;9.90;;;;;;;;;;5035014;28;20049;-79
2024/01/18 01:15:56;;;;;;;14.15;9.63;;;;;;;;;;5007981;28;20128;-79
2024/01/18 01:18:22;;;;;;;17.60;9.13;;;;;;;;;;5026125;28;20052;-79
2024/01/18 01:20:48;;;;;;;12.50;8.45;;;;;;;;;;5028535;28;20183;-79
2024/01/18 01:23:15;;;;;;;16.80;8.75;;;;;;;;;;5009474;28;20144;-79
2024/01/18 01:25:41;;;;;;;16.42;8.63;;;;;;;;;;5029933;28;20038;-79
2024/01/18 01:28:07;;;;;;;13.82;7.35;;;;;;;;;;5027994;28;20887;-79
2024/01/18 01:30:33;;;;;;;15.30;8.45;;;;;;;;;;5027344;28;20068;-79
2024/01/18 01:32:59;;;;;;;12.80;7.07;;;;;;;;;;5028053;28;20045;-79
2024/01/18 01:35:25;;;;;;;12.25;6.80;;;;;;;;;;5027178;28;20037;-79
2024/01/18 01:37:51;;;;;;;9.70;6.55;;;;;;;;;;5027964;28;20049;-79
2024/01/18 01:40:18;;;;;;;10.63;6.10;;;;;;;;;;5028744;28;20048;-79
2024/01/18 01:42:44;;;;;;;8.70;5.55;;;;;;;;;;5010720;28;20686;-79
2024/01/18 01:45:10;;;;;;;9.88;6.00;;;;;;;;;;5029463;28;20115;-79
2024/01/18 01:47:36;;;;;;;14.75;5.68;;;;;;;;;;5010954;28;20069;-79
2024/01/18 01:50:03;;;;;;;10.93;5.97;;;;;;;;;;4995820;28;20149;-79
2024/01/18 01:52:30;;;;;;;11.85;5.68;;;;;;;;;;5027978;28;20107;-79
2024/01/18 01:54:56;;;;;;;9.10;6.15;;;;;;;;;;5007345;28;20045;-79
2024/01/18 01:57:23;;;;;;;7.55;5.30;;;;;;;;;;5028239;28;20077;-79
2024/01/18 01:59:49;;;;;;;10.25;6.53;;;;;;;;;;5029181;28;20054;-79
2024/01/18 02:02:16;;;;;;;10.68;5.18;;;;;;;;;;5007684;28;20057;-80
2024/01/18 02:04:42;;;;;;;8.80;5.13;;;;;;;;;;5010587;28;20049;-79
2024/01/18 02:07:09;;;;;;;8.93;5.68;;;;;;;;;;4994791;28;20052;-79
2024/01/18 02:09:35;;;;;;;11.02;5.43;;;;;;;;;;5026444;28;20045;-79
2024/01/18 02:12:03;;;;;;;8.18;5.22;;;;;;;;;;4999786;28;20620;-79
2024/01/18 02:14:29;;;;;;;9.82;5.53;;;;;;;;;;5026175;28;20064;-79
2024/01/18 02:16:55;;;;;;;8.80;4.60;;;;;;;;;;5011812;28;20045;-79
2024/01/18 02:19:21;;;;;;;9.40;4.93;;;;;;;;;;5030574;28;20098;-79
2024/01/18 02:21:47;;;;;;;8.35;4.72;;;;;;;;;;5032317;28;20053;-79
2024/01/18 02:24:17;;;;;;;9.82;4.28;;;;;;;;;;5025703;28;20112;-79
2024/01/18 02:26:43;;;;;;;5.95;4.53;;;;;;;;;;5021699;28;20056;-79
2024/01/18 02:29:09;;;;;;;6.47;4.20;;;;;;;;;;5009749;28;20038;-79
2024/01/18 02:31:35;;;;;;;6.75;4.28;;;;;;;;;;5004917;28;20076;-78
2024/01/18 02:34:01;;;;;;;6.20;3.85;;;;;;;;;;5010490;28;20453;-79
2024/01/18 02:36:27;;;;;;;7.85;4.50;;;;;;;;;;5010383;28;20132;-79
2024/01/18 02:38:53;;;;;;;8.85;4.18;;;;;;;;;;4993899;28;20053;-79
2024/01/18 02:41:20;;;;;;;7.57;3.72;;;;;;;;;;4989864;28;20084;-79
2024/01/18 02:43:46;;;;;;;6.85;3.78;;;;;;;;;;5027150;28;20072;-79
2024/01/18 02:46:15;;;;;;;6.90;3.80;;;;;;;;;;5025636;28;20340;-79
2024/01/18 02:48:41;;;;;;;8.10;3.70;;;;;;;;;;5027664;28;20069;-79
2024/01/18 02:51:07;;;;;;;8.38;4.00;;;;;;;;;;5027996;28;20096;-79
2024/01/18 02:53:33;;;;;;;6.78;4.35;;;;;;;;;;5009369;28;20591;-79
2024/01/18 02:55:59;;;;;;;8.48;4.45;;;;;;;;;;5025840;28;20053;-79
2024/01/18 02:58:25;;;;;;;7.38;3.65;;;;;;;;;;5027356;28;20041;-79
2024/01/18 03:00:51;;;;;;;8.70;4.30;;;;;;;;;;5024706;28;20459;-78
2024/01/18 03:03:19;;;;;;;8.05;4.47;;;;;;;;;;5007099;28;20145;-79
2024/01/18 03:05:45;;;;;;;9.10;4.63;;;;;;;;;;5025717;28;20197;-79
2024/01/18 03:08:11;;;;;;;6.07;4.05;;;;;;;;;;4992536;28;20152;-78
2024/01/18 03:10:37;;;;;;;11.50;4.80;;;;;;;;;;5010198;28;20128;-78
2024/01/18 03:13:03;;;;;;;6.70;4.15;;;;;;;;;;5025096;28;20041;-79
2024/01/18 03:15:29;;;;;;;8.52;4.35;;;;;;;;;;5027334;28;20413;-79
2024/01/18 03:17:55;;;;;;;7.50;3.88;;;;;;;;;;5023199;28;20052;-78
2024/01/18 03:20:21;;;;;;;5.20;3.97;;;;;;;;;;5010190;28;20088;-79
2024/01/18 03:22:47;;;;;;;6.32;4.68;;;;;;;;;;5005171;28;20124;-79
2024/01/18 03:25:13;;;;;;;7.32;4.40;;;;;;;;;;5023443;28;20041;-79
2024/01/18 03:27:43;;;;;;;5.13;3.97;;;;;;;;;;5026855;28;20518;-79
2024/01/18 03:30:09;;;;;;;6.93;3.97;;;;;;;;;;5024969;28;20045;-78
2024/01/18 03:32:35;;;;;;;6.15;3.97;;;;;;;;;;5018126;28;20041;-79
2024/01/18 03:35:01;;;;;;;5.32;3.63;;;;;;;;;;5005995;28;20045;-78
2024/01/18 03:37:27;;;;;;;5.07;3.78;;;;;;;;;;5003897;28;20045;-78
2024/01/18 03:39:53;;;;;;;9.27;3.88;;;;;;;;;;5024441;28;20057;-79
2024/01/18 03:42:19;;;;;;;4.43;3.60;;;;;;;;;;5006720;28;20100;-79
2024/01/18 03:44:45;;;;;;;4.15;3.28;;;;;;;;;;5027226;28;20045;-78
2024/01/18 03:47:11;;;;;;;6.70;3.75;;;;;;;;;;4989445;28;20041;-78
2024/01/18 03:49:37;;;;;;;8.57;3.63;;;;;;;;;;5026905;28;20041;-78
2024/01/18 03:52:03;;;;;;;5.80;3.70;;;;;;;;;;5008449;28;20049;-78
2024/01/18 03:54:29;;;;;;;5.97;3.08;;;;;;;;;;5026428;28;20517;-78
2024/01/18 03:56:55;;;;;;;7.65;3.95;;;;;;;;;;5025238;28;20053;-78
2024/01/18 03:59:23;;;;;;;7.35;3.83;;;;;;;;;;5008295;28;20541;-78
2024/01/18 04:01:49;;;;;;;7.75;4.60;;;;;;;;;;5024043;28;20050;-78
2024/01/18 04:04:15;;;;;;;7.32;4.35;;;;;;;;;;5025866;28;20140;-78
2024/01/18 04:06:41;;;;;;;8.07;4.35;;;;;;;;;;5006322;28;20631;-78
2024/01/18 04:09:08;;;;;;;8.48;3.47;;;;;;;;;;5009211;28;20056;-78
2024/01/18 04:11:34;;;;;;;7.03;3.03;;;;;;;;;;4992613;28;20069;-78
2024/01/18 04:14:00;;;;;;;7.07;3.30;;;;;;;;;;4992823;28;20108;-78
2024/01/18 04:16:27;;;;;;;6.15;3.63;;;;;;;;;;5022296;28;20049;-78
2024/01/18 04:18:53;;;;;;;6.22;3.70;;;;;;;;;;5006931;28;20076;-78
2024/01/18 04:21:19;;;;;;;7.55;3.63;;;;;;;;;;5006774;28;20080;-78
2024/01/18 04:23:45;;;;;;;4.80;3.40;;;;;;;;;;5014051;28;20051;-78
2024/01/18 04:26:11;;;;;;;6.65;3.67;;;;;;;;;;5023884;28;20499;-78
2024/01/18 04:28:37;;;;;;;5.82;3.70;;;;;;;;;;5009561;28;20423;-78
2024/01/18 04:31:03;;;;;;;7.80;3.53;;;;;;;;;;4992365;28;20503;-78
2024/01/18 04:33:29;;;;;;;5.60;3.33;;;;;;;;;;5007467;28;20041;-79
2024/01/18 04:35:55;;;;;;;9.05;3.42;;;;;;;;;;5026111;28;20049;-78
2024/01/18 04:38:21;;;;;;;5.28;3.75;;;;;;;;;;5026030;28;20068;-79
2024/01/18 04:40:47;;;;;;;6.13;4.45;;;;;;;;;;5008892;28;20776;-78
2024/01/18 04:43:13;;;;;;;6.47;3.28;;;;;;;;;;5009138;28;20123;-78
2024/01/18 04:45:39;;;;;;;6.18;3.83;;;;;;;;;;5009024;28;20053;-78
2024/01/18 04:48:05;;;;;;;4.97;3.63;;;;;;;;;;5025936;28;20786;-78
2024/01/18 04:50:31;;;;;;;5.03;3.35;;;;;;;;;;4996041;28;20148;-78
2024/01/18 04:52:57;;;;;;;5.82;3.03;;;;;;;;;;5028815;28;20155;-79
2024/01/18 04:55:23;;;;;;;5.13;3.45;;;;;;;;;;5027212;28;20778;-79
2024/01/18 04:57:50;;;;;;;5.70;3.17;;;;;;;;;;5005121;28;20055;-79
2024/01/18 05:00:16;;;;;;;6.38;3.17;;;;;;;;;;5029039;28;20046;-78
2024/01/18 05:02:42;;;;;;;4.93;2.90;;;;;;;;;;5029525;28;20049;-79
2024/01/18 05:05:09;;;;;;;5.50;3.00;;;;;;;;;;4995631;28;20053;-78
2024/01/18 05:07:36;;;;;;;9.68;3.17;;;;;;;;;;5028335;28;20510;-78
2024/01/18 05:10:05;;;;;;;3.92;2.53;;;;;;;;;;5009558;28;20053;-79
2024/01/18 05:12:32;;;;;;;5.53;2.92;;;;;;;;;;5029362;28;20167;-78
2024/01/18 05:14:59;;;;;;;7.68;3.30;;;;;;;;;;5007966;28;20041;-79
2024/01/18 05:17:35;;;;;;;5.68;3.00;;;;;;;;;;5028210;28;20137;-79
2024/01/18 05:20:05;;;;;;;4.43;2.80;;;;;;;;;;5029048;28;20081;-78
2024/01/18 05:22:32;;;;;;;6.70;2.97;;;;;;;;;;5010233;28;20184;-78
2024/01/18 05:24:59;;;;;;;5.50;2.80;;;;;;;;;;5011498;28;20065;-78
2024/01/18 05:27:25;;;;;;;5.70;3.40;;;;;;;;;;4995648;28;20164;-78
2024/01/18 05:29:51;;;;;;;5.05;3.67;;;;;;;;;;5011190;28;20076;-78
2024/01/18 05:32:21;;;;;;;4.68;3.85;;;;;;;;;;5027974;28;20037;-78
2024/01/18 05:34:51;;;;;;;5.43;3.70;;;;;;;;;;4996671;28;20124;-78
2024/01/18 05:37:17;;;;;;;6.22;3.05;;;;;;;;;;5025829;28;20049;-78
2024/01/18 05:39:43;;;;;;;3.45;2.75;;;;;;;;;;5007609;28;20045;-79
2024/01/18 05:42:09;;;;;;;5.13;2.85;;;;;;;;;;5028766;28;20536;-78
2024/01/18 05:44:35;;;;;;;4.28;3.78;;;;;;;;;;4992350;28;20575;-78
2024/01/18 05:47:01;;;;;;;6.55;4.00;;;;;;;;;;5029575;28;20057;-78
2024/01/18 05:49:27;;;;;;;6.40;4.43;;;;;;;;;;4995709;28;20041;-79
2024/01/18 05:51:53;;;;;;;12.18;5.40;;;;;;;;;;5028525;28;20048;-78
2024/01/18 05:54:19;;;;;;;12.50;5.55;;;;;;;;;;5010082;28;20072;-78
2024/01/18 05:56:48;;;;;;;7.55;4.70;;;;;;;;;;5010020;28;20041;-78
2024/01/18 05:59:14;;;;;;;8.70;5.78;;;;;;;;;;5012066;28;20376;-78
2024/01/18 06:01:44;;;;;;;19.08;11.10;;;;;;;;;;5028467;28;20167;-78
2024/01/18 06:04:10;;;;;;;18.08;9.43;;;;;;;;;;5022762;28;20045;-78
2024/01/18 06:06:35;;;;;;;8.95;4.63;;;;;;;;;;5025792;28;20812;-78
2024/01/18 06:09:01;;;;;;;5.35;2.97;;;;;;;;;;5024242;28;20072;-78
2024/01/18 06:11:27;;;;;;;5.13;2.45;;;;;;;;;;5009148;28;20487;-78
2024/01/18 06:13:53;;;;;;;11.80;3.92;;;;;;;;;;5029909;28;20041;-78
2024/01/18 06:16:19;;;;;;;11.45;5.05;;;;;;;;;;5006149;28;20033;-78
2024/01/18 06:18:46;;;;;;;13.98;5.90;;;;;;;;;;5026161;28;20042;-78
2024/01/18 06:21:12;;;;;;;14.63;6.95;;;;;;;;;;4994928;28;20216;-78
2024/01/18 06:23:38;;;;;;;20.80;5.72;;;;;;;;;;4992558;28;20107;-78
2024/01/18 06:26:08;;;;;;;17.58;6.47;;;;;;;;;;5024981;28;20045;-78
2024/01/18 06:28:34;;;;;;;22.45;6.68;;;;;;;;;;5026386;28;20037;-78
2024/01/18 06:31:00;;;;;;;23.30;6.18;;;;;;;;;;5009961;28;20575;-78
2024/01/18 06:33:26;;;;;;;29.50;7.22;;;;;;;;;;5026564;28;20053;-78
2024/01/18 06:35:53;;;;;;;16.58;5.15;;;;;;;;;;5008466;28;20055;-78
2024/01/18 06:38:22;;;;;;;10.50;4.03;;;;;;;;;;4992221;28;20153;-78
2024/01/18 06:40:48;;;;;;;7.28;2.40;;;;;;;;;;5007860;28;20037;-78
2024/01/18 06:43:17;;;;;;;6.82;2.53;;;;;;;;;;5008353;28;20065;-77
2024/01/18 06:45:43;;;;;;;7.28;2.33;;;;;;;;;;4994962;28;20095;-77
2024/01/18 06:48:09;;;;;;;4.53;2.90;;;;;;;;;;5026973;28;20050;-78
2024/01/18 06:50:36;;;;;;;4.97;2.65;;;;;;;;;;5011611;28;20053;-77
2024/01/18 06:53:03;;;;;;;18.52;4.45;;;;;;;;;;5007120;28;20052;-78
2024/01/18 06:55:29;;;;;;;22.23;7.13;;;;;;;;;;5009361;28;20465;-77
2024/01/18 06:57:58;;;;;;;24.70;6.78;;;;;;;;;;4993902;28;20056;-78
2024/01/18 07:00:24;;;;;;;12.75;4.78;;;;;;;;;;4994458;28;20053;-78
2024/01/18 07:02:51;;;;;;;15.35;4.35;;;;;;;;;;5025837;28;20255;-78
2024/01/18 07:05:17;;;;;;;5.32;2.65;;;;;;;;;;5008727;28;20053;-78
2024/01/18 07:07:44;;;;;;;11.38;3.38;;;;;;;;;;5025938;28;20057;-79
2024/01/18 07:10:10;;;;;;;9.88;2.60;;;;;;;;;;4989226;28;20049;-79
2024/01/18 07:12:36;;;;;;;9.40;2.58;;;;;;;;;;5026444;28;20064;-79
2024/01/18 07:15:03;;;;;;;7.13;2.85;;;;;;;;;;5028942;28;20445;-80
2024/01/18 07:17:29;;;;;;;5.03;2.40;;;;;;;;;;5015326;28;20530;-79
2024/01/18 07:19:59;;;;;;;4.20;1.92;;;;;;;;;;5026009;28;20057;-79
2024/01/18 07:22:28;;;;;;;4.28;1.63;;;;;;;;;;5010052;28;20108;-80
2024/01/18 07:24:54;;;;;;;5.82;1.80;;;;;;;;;;5026741;28;20115;-80
2024/01/18 07:27:20;;;;;;;3.85;1.35;;;;;;;;;;5010518;28;20076;-80
2024/01/18 07:29:49;;;;;;;3.20;1.80;;;;;;;;;;5010910;28;20045;-80
2024/01/18 07:32:15;;;;;;;11.68;6.00;;;;;;;;;;5027604;28;20107;-80
2024/01/18 07:34:41;;;;;;;16.73;10.05;;;;;;;;;;4994179;28;20052;-80
2024/01/18 07:37:08;;;;;;;31.23;16.42;;;;;;;;;;5027796;28;20049;-80
2024/01/18 07:39:34;;;;;;;34.50;18.85;;;;;;;;;;5027019;28;20477;-80
2024/01/18 07:42:00;;;;;;;40.72;20.85;;;;;;;;;;5028341;28;20044;-80
2024/01/18 07:44:27;;;;;;;22.25;13.70;;;;;;;;;;5010814;28;20049;-80
2024/01/18 07:46:53;;;;;;;11.85;5.85;;;;;;;;;;5007875;28;20045;-80
2024/01/18 07:49:20;;;;;;;16.77;8.35;;;;;;;;;;4991031;28;20049;-80
2024/01/18 07:51:46;;;;;;;13.80;8.30;;;;;;;;;;5014519;28;20057;-79
2024/01/18 07:54:13;;;;;;;20.00;9.68;;;;;;;;;;5027009;28;20053;-78
2024/01/18 07:56:39;;;;;;;10.07;6.45;;;;;;;;;;5025247;28;20049;-78
2024/01/18 07:59:05;;;;;;;13.70;8.05;;;;;;;;;;5025694;28;20045;-79
2024/01/18 08:01:31;;;;;;;10.25;5.75;;;;;;;;;;5010403;28;20053;-80
2024/01/18 08:03:57;;;;;;;5.82;4.22;;;;;;;;;;5009761;28;20152;-79
2024/01/18 08:06:23;;;;;;;5.70;3.92;;;;;;;;;;5027925;28;20136;-80
2024/01/18 08:08:49;;;;;;;5.65;2.80;;;;;;;;;;5027739;28;20041;-80
2024/01/18 08:11:15;;;;;;;5.45;3.75;;;;;;;;;;5010826;28;20124;-79
2024/01/18 08:13:41;;;;;;;8.07;4.35;;;;;;;;;;5026297;28;20048;-79
2024/01/18 08:16:08;;;;;;;9.90;3.88;;;;;;;;;;5027608;28;20507;-79
2024/01/18 08:18:35;;;;;;;5.57;3.10;;;;;;;;;;5028024;28;20504;-79
2024/01/18 08:21:01;;;;;;;4.85;3.53;;;;;;;;;;5010246;28;20801;-79
2024/01/18 08:23:27;;;;;;;6.13;3.20;;;;;;;;;;5030916;28;20454;-78
2024/01/18 08:25:53;;;;;;;6.18;3.33;;;;;;;;;;5012358;28;20099;-79
2024/01/18 08:28:19;;;;;;;4.60;2.85;;;;;;;;;;5031059;28;20053;-79
2024/01/18 08:30:45;;;;;;;5.03;3.05;;;;;;;;;;5013524;28;20045;-80
2024/01/18 08:33:11;;;;;;;7.97;3.50;;;;;;;;;;4997609;28;20561;-79
2024/01/18 08:35:37;;;;;;;7.57;3.97;;;;;;;;;;5014093;28;20259;-79
2024/01/18 08:38:04;;;;;;;6.30;2.95;;;;;;;;;;5030334;28;20160;-80
2024/01/18 08:40:30;;;;;;;8.10;3.63;;;;;;;;;;5011326;28;20103;-80
2024/01/18 08:42:56;;;;;;;6.38;3.33;;;;;;;;;;4995781;28;20045;-80
2024/01/18 08:45:23;;;;;;;9.32;4.13;;;;;;;;;;4994955;28;20065;-79
2024/01/18 08:47:49;;;;;;;6.13;3.45;;;;;;;;;;5011725;28;20041;-80
2024/01/18 08:50:15;;;;;;;5.32;3.13;;;;;;;;;;5029745;28;20073;-79
2024/01/18 08:52:41;;;;;;;5.68;4.00;;;;;;;;;;5029455;28;20083;-80
2024/01/18 08:55:07;;;;;;;9.23;3.47;;;;;;;;;;5014141;28;20391;-80
2024/01/18 08:57:33;;;;;;;4.65;3.33;;;;;;;;;;4996445;28;20048;-80
2024/01/18 08:59:59;;;;;;;6.10;2.42;;;;;;;;;;5030797;28;20088;-79
2024/01/18 09:02:25;;;;;;;7.60;3.15;;;;;;;;;;5031170;28;20103;-80
2024/01/18 09:04:51;;;;;;;4.85;3.08;;;;;;;;;;5031320;28;20129;-80
2024/01/18 09:07:17;;;;;;;8.93;5.60;;;;;;;;;;5030579;28;20833;-80
2024/01/18 09:09:44;;;;;;;9.85;6.28;;;;;;;;;;4997108;28;20080;-80
2024/01/18 09:12:11;;;;;;;9.65;4.57;;;;;;;;;;5012640;28;20112;-80
2024/01/18 09:14:36;;;;;;;7.43;3.15;;;;;;;;;;5013017;28;20610;-80
2024/01/18 09:17:02;;;;;;;2.47;2.15;;;;;;;;;;5031205;28;20136;-80
2024/01/18 09:19:30;;;;;;;2.17;1.63;;;;;;;;;;5030956;28;20049;-79
2024/01/18 09:21:57;;;;;;;4.07;1.83;;;;;;;;;;5013397;28;20462;-80
2024/01/18 09:24:23;;;;;;;2.75;1.88;;;;;;;;;;5013346;28;20090;-80
2024/01/18 09:26:49;;;;;;;3.85;2.28;;;;;;;;;;5030268;28;20152;-80
2024/01/18 09:29:15;;;;;;;5.32;2.10;;;;;;;;;;5012200;28;20129;-80
2024/01/18 09:31:41;;;;;;;6.22;2.67;;;;;;;;;;5030844;28;20045;-80
2024/01/18 09:34:07;;;;;;;2.78;1.88;;;;;;;;;;4996134;28;20049;-81
2024/01/18 09:36:33;;;;;;;4.20;1.90;;;;;;;;;;5030914;28;20498;-80
2024/01/18 09:38:59;;;;;;;4.75;1.90;;;;;;;;;;5027489;28;20045;-81
2024/01/18 09:41:29;;;;;;;3.70;1.80;;;;;;;;;;5006886;28;20556;-80
2024/01/18 09:44:03;;;;;;;4.10;1.70;;;;;;;;;;5009477;28;20523;-80
2024/01/18 09:46:29;;;;;;;3.83;1.60;;;;;;;;;;5011415;28;20049;-80
2024/01/18 09:48:55;;;;;;;10.82;1.98;;;;;;;;;;5011501;28;20503;-81
2024/01/18 09:51:23;;;;;;;3.10;1.77;;;;;;;;;;5013032;28;20132;-80
2024/01/18 09:53:54;;;;;;;8.88;1.55;;;;;;;;;;5012866;28;20046;-80
2024/01/18 09:56:24;;;;;;;4.30;1.92;;;;;;;;;;5013479;28;20060;-81
2024/01/18 09:58:51;;;;;;;3.50;1.80;;;;;;;;;;5012863;28;20056;-80
2024/01/18 10:01:19;;;;;;;4.47;1.80;;;;;;;;;;5030419;28;20506;-80
2024/01/18 10:03:45;;;;;;;7.00;2.40;;;;;;;;;;5010875;28;20063;-80
2024/01/18 10:06:12;;;;;;;4.60;1.83;;;;;;;;;;5030249;28;20410;-80
2024/01/18 10:08:38;;;;;;;6.50;1.60;;;;;;;;;;5030252;28;20474;-81
2024/01/18 10:11:05;;;;;;;6.18;2.25;;;;;;;;;;5030423;28;20132;-80
2024/01/18 10:13:47;;;;;;;5.97;1.85;;;;;;;;;;5030620;28;20057;-81
2024/01/18 10:16:26;;;;;;;5.10;2.10;;;;;;;;;;5012726;28;20057;-80
2024/01/18 10:18:52;;;;;;;4.07;1.70;;;;;;;;;;5030656;28;20057;-79
2024/01/18 10:21:18;;;;;;;4.05;1.75;;;;;;;;;;5011952;28;20108;-79
2024/01/18 10:23:44;;;;;;;3.70;1.75;;;;;;;;;;5030074;28;20049;-79
2024/01/18 10:26:10;;;;;;;3.53;1.90;;;;;;;;;;5030834;28;20041;-79
2024/01/18 10:28:36;;;;;;;6.15;1.88;;;;;;;;;;5013331;28;20713;-79
2024/01/18 10:31:03;;;;;;;2.25;1.58;;;;;;;;;;5008631;28;20068;-77
2024/01/18 10:33:32;;;;;;;5.32;2.33;;;;;;;;;;5012648;28;20053;-77
2024/01/18 10:35:58;;;;;;;4.95;2.60;;;;;;;;;;5012697;28;20045;-76
2024/01/18 10:38:35;;;;;;;4.75;2.38;;;;;;;;;;5029699;28;20051;-77
2024/01/18 10:41:02;;;;;;;7.72;2.92;;;;;;;;;;5029413;28;20503;-76
2024/01/18 10:43:32;;;;;;;6.45;3.10;;;;;;;;;;5028281;28;20095;-76
2024/01/18 10:45:58;;;;;;;6.70;1.98;;;;;;;;;;5011207;28;20147;-76
2024/01/18 10:48:25;;;;;;;4.18;1.98;;;;;;;;;;5029951;28;20080;-76
2024/01/18 10:50:52;;;;;;;4.32;2.13;;;;;;;;;;5029552;28;20389;-76
2024/01/18 10:53:19;;;;;;;2.38;1.33;;;;;;;;;;5029330;28;20522;-76
2024/01/18 10:55:45;;;;;;;8.07;3.53;;;;;;;;;;4995515;28;20049;-76
2024/01/18 10:58:11;;;;;;;7.63;3.17;;;;;;;;;;4995049;28;20436;-76
2024/01/18 11:00:37;;;;;;;3.70;2.10;;;;;;;;;;5029532;28;20056;-76
2024/01/18 11:03:03;;;;;;;3.90;1.92;;;;;;;;;;5010998;28;20879;-76
2024/01/18 11:05:30;;;;;;;2.90;1.95;;;;;;;;;;5012784;28;20099;-76
2024/01/18 11:07:57;;;;;;;4.60;2.40;;;;;;;;;;5011363;28;20053;-76
2024/01/18 11:10:23;;;;;;;7.45;2.25;;;;;;;;;;5029008;28;20099;-76
2024/01/18 11:12:49;;;;;;;2.10;1.50;;;;;;;;;;5008198;28;20042;-76
2024/01/18 11:15:18;;;;;;;3.83;1.40;;;;;;;;;;4993684;28;20045;-76
2024/01/18 11:17:48;;;;;;;6.22;1.90;;;;;;;;;;5009031;28;20065;-76
2024/01/18 11:20:15;;;;;;;1.73;1.50;;;;;;;;;;5009046;28;20049;-77
2024/01/18 11:22:41;;;;;;;7.60;1.95;;;;;;;;;;5028140;28;20045;-78
2024/01/18 11:25:09;;;;;;;5.07;1.67;;;;;;;;;;5029686;28;20132;-77
2024/01/18 11:27:41;;;;;;;5.20;1.60;;;;;;;;;;5006130;28;20046;-78
2024/01/18 11:30:14;;;;;;;6.13;2.47;;;;;;;;;;5001407;28;20495;-77
2024/01/18 11:32:40;;;;;;;3.45;1.42;;;;;;;;;;5009520;28;20472;-78
2024/01/18 11:35:11;;;;;;;8.38;2.53;;;;;;;;;;5010665;28;20045;-78
2024/01/18 11:37:38;;;;;;;1.92;1.20;;;;;;;;;;5026780;28;20041;-77
2024/01/18 11:40:06;;;;;;;3.53;1.35;;;;;;;;;;4992958;28;20068;-77
2024/01/18 11:42:33;;;;;;;2.17;1.42;;;;;;;;;;5017308;28;20591;-77
2024/01/18 11:45:03;;;;;;;4.40;1.50;;;;;;;;;;5005306;28;20045;-77
2024/01/18 11:47:31;;;;;;;3.75;1.40;;;;;;;;;;5028911;28;20060;-77
2024/01/18 11:49:57;;;;;;;2.53;1.35;;;;;;;;;;5011583;28;20052;-76
2024/01/18 11:52:24;;;;;;;2.00;1.20;;;;;;;;;;5028859;28;20128;-77
2024/01/18 11:54:52;;;;;;;2.90;2.45;;;;;;;;;;5029397;28;20597;-77
2024/01/18 11:57:19;;;;;;;3.30;1.40;;;;;;;;;;5010603;28;20057;-77
2024/01/18 11:59:46;;;;;;;4.78;3.80;;;;;;;;;;4992788;28;20044;-78
2024/01/18 12:02:12;;;;;;;3.15;2.42;;;;;;;;;;5010829;28;20677;-77
2024/01/18 12:04:38;;;;;;;3.70;1.80;;;;;;;;;;5028913;28;20049;-77
2024/01/18 12:07:05;;;;;;;2.95;1.63;;;;;;;;;;5028181;28;20049;-76
2024/01/18 12:09:31;;;;;;;3.88;1.95;;;;;;;;;;5010365;28;20371;-77
2024/01/18 12:11:59;;;;;;;5.65;2.00;;;;;;;;;;5028604;28;20841;-77
2024/01/18 12:14:25;;;;;;;2.67;1.30;;;;;;;;;;5026632;28;20053;-77
2024/01/18 12:16:51;;;;;;;3.60;1.52;;;;;;;;;;5008327;28;20041;-77
2024/01/18 12:19:35;;;;;;;2.65;1.60;;;;;;;;;;5027607;28;20116;-77
2024/01/18 12:22:01;;;;;;;3.35;2.78;;;;;;;;;;5027563;28;20052;-77
2024/01/18 12:24:27;;;;;;;2.00;1.63;;;;;;;;;;5009701;28;20045;-77
2024/01/18 12:26:53;;;;;;;3.42;1.90;;;;;;;;;;5027715;28;20052;-77
2024/01/18 12:29:20;;;;;;;5.47;3.92;;;;;;;;;;5010396;28;20053;-77
2024/01/18 12:31:49;;;;;;;4.55;1.70;;;;;;;;;;4993306;28;20049;-77
2024/01/18 12:34:17;;;;;;;2.05;1.40;;;;;;;;;;5009798;28;20055;-77
2024/01/18 12:36:43;;;;;;;6.43;3.50;;;;;;;;;;5027425;28;20133;-77
2024/01/18 12:39:09;;;;;;;3.95;1.80;;;;;;;;;;5026411;28;20073;-77
2024/01/18 12:41:35;;;;;;;4.50;3.10;;;;;;;;;;5027197;28;20045;-77
2024/01/18 12:44:05;;;;;;;2.55;1.40;;;;;;;;;;5010074;28;20095;-77
2024/01/18 12:46:31;;;;;;;3.47;1.70;;;;;;;;;;5008630;28;20130;-77
2024/01/18 12:48:58;;;;;;;1.35;1.25;;;;;;;;;;5026671;28;20056;-77
2024/01/18 12:51:24;;;;;;;1.80;1.35;;;;;;;;;;5025537;28;20087;-77
2024/01/18 12:53:50;;;;;;;2.33;1.48;;;;;;;;;;5007726;28;20128;-77
2024/01/18 12:56:16;;;;;;;1.85;1.40;;;;;;;;;;5027125;28;20136;-77
2024/01/18 12:58:42;;;;;;;1.50;1.40;;;;;;;;;;5027640;28;20049;-77
2024/01/18 13:01:09;;;;;;;5.18;4.78;;;;;;;;;;5026162;28;20050;-77
2024/01/18 13:03:35;;;;;;;3.17;1.42;;;;;;;;;;4992938;28;20056;-77
2024/01/18 13:06:02;;;;;;;2.35;1.30;;;;;;;;;;5026120;28;20058;-78
2024/01/18 13:08:28;;;;;;;3.22;1.63;;;;;;;;;;4994247;28;20045;-77
2024/01/18 13:10:54;;;;;;;4.72;1.60;;;;;;;;;;5011341;28;20049;-77
2024/01/18 13:13:20;;;;;;;3.33;2.05;;;;;;;;;;5019955;28;20103;-79
2024/01/18 13:15:46;;;;;;;3.88;3.58;;;;;;;;;;5010542;28;20103;-77
2024/01/18 13:18:12;;;;;;;2.78;1.70;;;;;;;;;;5030064;28;20044;-77
2024/01/18 13:20:39;;;;;;;2.25;1.40;;;;;;;;;;5012476;28;20061;-77
2024/01/18 13:23:05;;;;;;;2.85;1.30;;;;;;;;;;5029365;28;20042;-77
2024/01/18 13:25:31;;;;;;;13.02;11.73;;;;;;;;;;5011305;28;20049;-77
2024/01/18 13:27:57;;;;;;;2.80;1.30;;;;;;;;;;5029414;28;20045;-77
2024/01/18 13:30:23;;;;;;;3.22;1.50;;;;;;;;;;5030403;28;20042;-77
2024/01/18 13:32:50;;;;;;;2.88;2.47;;;;;;;;;;5030636;28;20049;-77
2024/01/18 13:35:16;;;;;;;1.73;1.42;;;;;;;;;;5010891;28;20755;-77
2024/01/18 13:37:42;;;;;;;4.40;3.25;;;;;;;;;;5029826;28;20052;-77
2024/01/18 13:40:08;;;;;;;5.10;1.50;;;;;;;;;;5010471;28;20049;-77
2024/01/18 13:42:35;;;;;;;18.27;15.73;;;;;;;;;;5030623;28;20061;-77
2024/01/18 13:45:01;;;;;;;4.30;1.92;;;;;;;;;;5028860;28;20084;-78
2024/01/18 13:47:27;;;;;;;1.60;1.42;;;;;;;;;;5029436;28;20073;-79
2024/01/18 13:49:53;;;;;;;3.05;1.35;;;;;;;;;;5029954;28;20049;-78
2024/01/18 13:52:20;;;;;;;1.60;1.13;;;;;;;;;;5011701;28;20045;-78
2024/01/18 13:54:46;;;;;;;1.80;1.55;;;;;;;;;;4996307;28;20128;-78
2024/01/18 13:57:13;;;;;;;3.83;2.15;;;;;;;;;;5011811;28;20153;-78
2024/01/18 13:59:39;;;;;;;2.50;1.60;;;;;;;;;;5029702;28;20144;-77
2024/01/18 14:02:05;;;;;;;2.90;1.70;;;;;;;;;;5010852;28;20135;-77
2024/01/18 14:04:31;;;;;;;2.35;1.90;;;;;;;;;;5011911;28;20057;-78
2024/01/18 14:06:58;;;;;;;14.55;13.10;;;;;;;;;;5028205;28;20041;-78
2024/01/18 14:09:24;;;;;;;4.60;1.73;;;;;;;;;;5028451;28;20392;-77
2024/01/18 14:11:50;;;;;;;2.90;1.40;;;;;;;;;;5012405;28;20058;-77
2024/01/18 14:14:16;;;;;;;3.33;1.92;;;;;;;;;;5029503;28;20388;-77
2024/01/18 14:16:42;;;;;;;2.72;0.90;;;;;;;;;;5029599;28;20048;-77
2024/01/18 14:19:09;;;;;;;7.68;6.13;;;;;;;;;;5012343;28;20060;-77
2024/01/18 14:21:35;;;;;;;3.72;1.70;;;;;;;;;;5028939;28;20037;-77
2024/01/18 14:24:01;;;;;;;2.83;1.42;;;;;;;;;;5011042;28;20412;-77
2024/01/18 14:26:27;;;;;;;5.28;2.40;;;;;;;;;;5011740;28;20045;-77
2024/01/18 14:28:53;;;;;;;5.60;2.17;;;;;;;;;;4995152;28;20060;-77
2024/01/18 14:31:19;;;;;;;8.00;4.85;;;;;;;;;;5029203;28;20047;-77
2024/01/18 14:33:45;;;;;;;4.28;1.98;;;;;;;;;;5029559;28;20055;-77